Impacts METAR Board
IDs:

KMSP - Minneapolis-St Paul, MN, US

Updated at: 1200 UTC 27 Feb 2021
Potential Impact None Slight Moderate High
Time 27/00Z 27/01Z 27/02Z 27/03Z 27/04Z 27/05Z 27/06Z 27/07Z 27/08Z 27/09Z 27/10Z 27/11Z 27/12Z
Temp38 36 35 34 32 33 34 33 32 32 31 30 30
Dewpt27 28 28 28 28 28 28 28 27 27 27 26 27
Altim29.72 29.72 29.72 29.72 29.72 29.72 29.71 29.71 29.72 29.72 29.73 29.74 29.76
VIS10 10 10 10 9 9 8 9 7 6 7 6 6
CIG200 200 90 200 -- -- -- -- 200 200 -- -- --
CoverBKNBKNBKNBKNSCTSCTSCTSCTBKNBKNSCTSCTCLR
FltCatVFRVFRVFRVFRVFRVFRVFRVFRVFRVFRVFRVFRVFR
WX------------------HZ--BRBR
WDir210180180170160180200190180190200180200
WSpd11 8 8 7 6 6 5 5 5 4 3 4 4
WGst-- -- -- -- -- -- -- -- -- -- -- -- --
Raw hourly METARs
KMSP 262353Z 21011KT 10SM FEW030 SCT120 BKN200 BKN250 03/M03 A2972 RMK AO2 SLP072 4/005 T00331028 10050 20033 56006
KMSP 270053Z 18008KT 10SM FEW045 SCT110 BKN200 BKN250 02/M02 A2972 RMK AO2 SLP073 VIRGA T00221022
KMSP 270153Z COR 18008KT 10SM FEW045 SCT070 BKN090 BKN200 02/M02 A2972 RMK AO2 SLP071 VIRGA T00171022
KMSP 270253Z 17007KT 10SM FEW045 SCT065 SCT080 BKN200 01/M02 A2972 RMK AO2 SLP071 VIRGA T00111022 58000
KMSP 270353Z 16006KT 9SM FEW050 FEW075 SCT110 SCT200 00/M02 A2972 RMK AO2 SLP072 T00001022
KMSP 270453Z 18006KT 9SM FEW075 SCT110 SCT200 01/M02 A2972 RMK AO2 SLP070 T00061022
KMSP 270553Z 20005KT 8SM FEW130 SCT250 01/M02 A2971 RMK AO2 SLP069 4/005 T00111022 10033 20000 400501039 58002
KMSP 270653Z 19005KT 9SM SCT210 01/M02 A2971 RMK AO2 SLP067 T00061022
KMSP 270753Z 18005KT 7SM BKN200 00/M03 A2972 RMK AO2 SLP071 T00001028
KMSP 270853Z 19004KT 6SM HZ BKN200 00/M03 A2972 RMK AO2 SLP073 T00001028 53004
KMSP 270953Z 20003KT 7SM FEW080 SCT210 M01/M03 A2973 RMK AO2 SLP074 T10061028
KMSP 271053Z 18004KT 6SM BR SCT200 M01/M03 A2974 RMK AO2 SLP079 T10111033
KMSP 271153Z 20004KT 6SM BR CLR M01/M03 A2976 RMK AO2 SLP088 4/005 T10111028 10011 21017 53014



Page loaded:  12:48 UTC  |   04:48 AM Pacific  |   05:48 AM Mountain  |   06:48 AM Central  |   07:48 AM Eastern

 

ADVISORIES

FORECASTS

FORECASTS

OBSERVATIONS

USER TOOLS

ABOUT US